• Join FlightAware (Why Join?)
  • Login
  • US Flag 
08:54AM EST


 

Airport Tracker/Info


-or-


 

Live Flight TrackerFlight Track Log ✈ AAY841 ✈ 10-Apr-2014 ✈ KTRI - KPIE

Flight Track Log - Related Links

Times and Time Zones

All times are in EDT time to prevent confusion due to time zone crossing. See the AAY841 flight status page for this flight to view local times or setup timezone preferences in your user account.

Time Position Orientation Groundspeed Altitude Reporting Facility
EDT Latitude Longitude Course Direction KTS MPH feet Rate Location/Type
08:57AM 36.4069 -82.4600 171° South 212 244 4,900  Level Atlanta Center
08:58AM 36.3336 -82.4458 171° South 262 302 7,800 2,900 Climbing Atlanta Center
08:59AM 36.2542 -82.4294 171° South 277 319 10,700 2,450 Climbing Atlanta Center
09:00AM 36.1622 -82.4158 173° South 321 369 12,700 2,450 Climbing Atlanta Center
09:01AM 36.0619 -82.3947 170° South 363 418 15,600 2,550 Climbing Atlanta Center
09:02AM 35.9594 -82.3739 171° South 376 433 17,800 2,300 Climbing Atlanta Center
09:03AM 35.8506 -82.3531 171° South 389 448 20,200 2,250 Climbing Atlanta Center
09:04AM 35.7292 -82.3300 171° South 394 453 22,300 2,000 Climbing Atlanta Center
09:05AM 35.6269 -82.3142 173° South 404 465 24,200 1,649 Climbing Atlanta Center
09:11AM 34.9283 -82.2957 183° South 455 524 33,100 1,576 Climbing FlightAware ADS-B (KDZJ)
09:11AM 34.8390 -82.3011 183° South 454 522 34,000 675 Climbing FlightAware ADS-B (KDZJ)
09:12AM 34.7563 -82.3061 183° South 450 518 34,000  Level FlightAware ADS-B (KDZJ)
09:13AM 34.6716 -82.3112 183° South 453 521 34,000 600 Level FlightAware ADS-B (KDZJ)
09:13AM 34.5877 -82.3164 183° South 454 522 34,800 1,040 Climbing FlightAware ADS-B (KDZJ)
09:14AM 34.5293 -82.3199 183° South 455 524 35,300 1,009 Climbing FlightAware ADS-B (KDZJ)
09:15AM 34.3814 -82.3297 183° South 457 526 36,600 1,045 Climbing Atlanta Center
09:16AM 34.2519 -82.3375 183° South 457 526 37,600 700 Climbing Atlanta Center
09:17AM 34.1083 -82.3478 183° South 469 540 38,000 133 Climbing Atlanta Center
09:19AM 33.8581 -82.3628 183° South 455 524 38,000  Level Atlanta Center
09:20AM 33.7328 -82.3703 183° South 455 524 38,000  Level Atlanta Center
09:22AM 33.4908 -82.3850 188° South 455 524 38,000  Level Atlanta Center
09:23AM 33.3658 -82.3922 183° South 455 524 38,000  Level Atlanta Center
09:24AM 33.2300 -82.3972 182° South 460 529 38,000  Level Atlanta Center
09:26AM 33.0214 -82.4094 183° South 457 526 38,000  Level Jacksonville Center
09:27AM 32.8983 -82.4200 184° South 451 519 38,000  Level Jacksonville Center
09:28AM 32.7753 -82.4256 182° South 446 513 38,000  Level Jacksonville Center
09:29AM 32.6542 -82.4311 182° South 439 505 38,000  Level Jacksonville Center
09:30AM 32.5311 -82.4392 183° South 444 511 38,000  Level Jacksonville Center
09:31AM 32.4100 -82.4472 183° South 444 511 38,000  Level Jacksonville Center
09:32AM 32.2847 -82.4503 181° South 444 511 38,000  Level Jacksonville Center
09:33AM 32.1636 -82.4583 183° South 444 511 38,000  Level Jacksonville Center
09:34AM 32.0553 -82.4636 182° South 439 505 38,000  Level Jacksonville Center
09:35AM 31.9319 -82.4739 184° South 439 505 38,000  Level Jacksonville Center
09:36AM 31.8131 -82.4794 182° South 439 505 38,000  Level Jacksonville Center
09:37AM 31.6878 -82.4872 183° South 439 505 38,000  Level Jacksonville Center
09:38AM 31.5647 -82.4928 182° South 439 505 38,000  Level Jacksonville Center
09:39AM 31.4394 -82.4981 182° South 444 511 38,000  Level Jacksonville Center
09:44AM 30.7592 -82.5167 173° South 446 513 38,000  Level FlightAware ADS-B
09:45AM 30.6226 -82.4981 173° South 445 512 38,000  Level FlightAware ADS-B
09:46AM 30.5491 -82.4882 173° South 445 512 38,000 -168 Level FlightAware ADS-B
09:47AM 30.4038 -82.4685 173° South 446 513 37,700 -438 Descending FlightAware ADS-B
09:48AM 30.3433 -82.4602 173° South 443 510 37,300 -915 Descending FlightAware ADS-B
09:49AM 30.1611 -82.4361 174° South 446 513 35,900 -974 Descending FlightAware ADS-B
09:50AM 30.1038 -82.4283 173° South 445 512 35,400 -984 Descending FlightAware ADS-B
09:50AM 30.0357 -82.4190 173° South 447 514 34,900 -1,082 Descending FlightAware ADS-B
09:51AM 29.9745 -82.4107 174° South 449 517 34,300 -2,308 Descending FlightAware ADS-B
09:51AM 29.9003 -82.4009 173° South 449 517 32,400 -2,769 Descending FlightAware ADS-B
09:52AM 29.8412 -82.3928 173° South 439 505 31,300 -2,226 Descending FlightAware ADS-B
09:52AM 29.7756 -82.3837 173° South 429 494 30,100 -2,250 Descending FlightAware ADS-B
09:53AM 29.6830 -82.3712 173° South 414 476 28,300 -2,165 Descending FlightAware ADS-B
09:54AM 29.5905 -82.3590 174° South 407 468 26,600 -2,051 Descending FlightAware ADS-B
09:54AM 29.5328 -82.3517 174° South 409 471 25,600 -1,865 Descending FlightAware ADS-B
09:55AM 29.4580 -82.3431 174° South 403 464 24,300 -1,769 Descending FlightAware ADS-B
09:56AM 29.3931 -82.3354 174° South 398 458 23,300 -1,714 Descending FlightAware ADS-B
09:56AM 29.3101 -82.3255 174° South 391 450 22,100 -1,753 Descending FlightAware ADS-B
09:57AM 29.2393 -82.3171 174° South 387 445 20,700 -1,768 Descending FlightAware ADS-B
09:58AM 29.1118 -82.3019 174° South 373 429 18,800 -1,617 Descending FlightAware ADS-B
09:59AM 29.0287 -82.2920 173° South 361 415 17,600 -1,552 Descending FlightAware ADS-B
09:59AM 29.0143 -82.2883 162° South 362 417 17,300 -2,500 Descending FlightAware ADS-B
09:59AM 29.0102 -82.2866 151° Southeast 363 418 17,100 -1,263 Descending FlightAware ADS-B
10:00AM 28.9867 -82.2689 137° Southeast 365 420 16,900 -667 Descending FlightAware ADS-B
10:00AM 28.9686 -82.2364 115° Southeast 366 421 16,700 -197 Descending FlightAware ADS-B
10:01AM 28.9401 -82.1645 114° Southeast 366 421 16,700  Level FlightAware ADS-B
10:01AM 28.9178 -82.1082 114° Southeast 365 420 16,700  Level FlightAware ADS-B
10:01AM 28.8977 -82.0763 137° Southeast 365 420 16,700  Level FlightAware ADS-B
10:02AM 28.8835 -82.0654 151° Southeast 361 415 16,700  Level FlightAware ADS-B
10:02AM 28.8791 -82.0630 166° South 358 412 16,700  Level FlightAware ADS-B
10:02AM 28.8025 -82.0542 179° South 354 407 16,700 -217 Level FlightAware ADS-B
10:03AM 28.7340 -82.0519 178° South 355 409 16,400 -732 Descending FlightAware ADS-B
10:04AM 28.6713 -82.0499 179° South 354 407 15,700 -1,099 Descending FlightAware ADS-B
10:04AM 28.6176 -82.0495 186° South 346 398 15,100 -1,543 Descending FlightAware ADS-B
10:04AM 28.6110 -82.0509 198° South 343 395 14,800 -1,935 Descending FlightAware ADS-B
10:05AM 28.5749 -82.0736 217° Southwest 337 388 14,100 -1,754 Descending FlightAware ADS-B
10:05AM 28.5274 -82.1139 217° Southwest 333 383 12,900 -2,027 Descending FlightAware ADS-B
10:06AM 28.4893 -82.1589 247° West 326 375 11,600 -1,294 Descending FlightAware ADS-B
10:07AM 28.4637 -82.2631 254° West 323 372 10,700 -635 Descending FlightAware ADS-B
10:08AM 28.4491 -82.3029 244° Southwest 329 379 10,500 -600 Descending FlightAware ADS-B
10:08AM 28.4181 -82.3746 244° Southwest 326 375 10,000 -600 Descending FlightAware ADS-B
10:09AM 28.3862 -82.4504 245° Southwest 327 376 9,700 -44 Descending FlightAware ADS-B
10:11AM 28.3333 -82.5833 245° Southwest 299 344 9,900 -446 Climbing Tampa TRACON
10:12AM 28.3167 -82.6667 257° West 282 325 8,600 -1,316 Descending Tampa TRACON
10:12AM 28.2833 -82.7333 240° Southwest 289 333 7,400 -789 Descending Tampa TRACON
10:13AM 28.2167 -82.7833 213° Southwest 294 338 7,100 -727 Descending Tampa TRACON
10:15AM 28.1333 -82.8333 208° Southwest 277 319 5,800 -1,200 Descending Tampa TRACON
10:15AM 28.0667 -82.8333 180° South 262 302 4,700 -1,165 Descending Tampa TRACON
10:16AM 28.0000 -82.8167 168° South 245 282 3,800 -939 Descending Tampa TRACON
10:17AM 27.9500 -82.8000 164° South 218 251 2,900 -571 Descending Tampa TRACON
10:18AM 27.8833 -82.7667 156° South 187 215 2,600 -500 Descending Tampa TRACON
10:19AM 27.8500 -82.7500 156° South 179 206 1,900 -600 Descending Tampa TRACON
10:20AM 27.8500 -82.7000 90° East 149 171 1,400 -619 Descending Tampa TRACON
10:21AM 27.8833 -82.6833 24° Northeast 132 152 600 -800 Descending Tampa TRACON